createdAt,value
2017-06-27T00:00:01.924Z,1.63
2017-06-27T00:02:29.363Z,1.80
2017-06-27T00:04:56.808Z,2.20
2017-06-27T00:07:24.239Z,2.40
2017-06-27T00:09:51.900Z,1.93
2017-06-27T00:12:19.337Z,1.97
2017-06-27T00:14:46.763Z,2.67
2017-06-27T00:17:14.632Z,2.53
2017-06-27T00:19:42.076Z,2.30
2017-06-27T00:22:09.527Z,2.50
2017-06-27T00:24:36.947Z,2.50
2017-06-27T00:27:04.392Z,2.73
2017-06-27T00:29:31.824Z,2.50
2017-06-27T00:31:59.252Z,3.20
2017-06-27T00:34:26.688Z,2.70
2017-06-27T00:36:54.115Z,3.03
2017-06-27T00:39:21.560Z,2.17
2017-06-27T00:41:49.068Z,2.60
2017-06-27T00:44:16.515Z,2.90
2017-06-27T00:46:43.952Z,2.57
2017-06-27T00:49:11.388Z,2.30
2017-06-27T00:51:38.828Z,3.20
2017-06-27T00:54:06.257Z,2.70
2017-06-27T00:56:33.720Z,3.13
2017-06-27T00:59:01.163Z,2.83
2017-06-27T01:01:28.592Z,2.50
2017-06-27T01:03:56.052Z,2.70
2017-06-27T01:06:23.492Z,2.63
2017-06-27T01:08:50.928Z,2.50
2017-06-27T01:11:18.352Z,3.03
2017-06-27T01:13:45.794Z,2.90
2017-06-27T01:16:13.228Z,2.47
2017-06-27T01:18:40.669Z,2.83
2017-06-27T01:21:08.145Z,2.73
2017-06-27T01:23:35.591Z,2.57
2017-06-27T01:26:03.022Z,2.50
2017-06-27T01:28:30.502Z,2.93
2017-06-27T01:30:57.935Z,2.37
2017-06-27T01:33:26.176Z,2.53
2017-06-27T01:35:53.748Z,2.70
2017-06-27T01:38:21.942Z,3.10
2017-06-27T01:40:49.383Z,2.20
2017-06-27T01:43:16.820Z,2.70
2017-06-27T01:45:44.257Z,2.97
2017-06-27T01:48:11.756Z,2.80
2017-06-27T01:50:39.299Z,3.17
2017-06-27T01:53:06.739Z,2.00
2017-06-27T01:55:34.180Z,2.70
2017-06-27T01:58:01.654Z,2.70
2017-06-27T02:00:29.883Z,2.80
2017-06-27T02:02:57.316Z,2.27
2017-06-27T02:05:24.751Z,2.80
2017-06-27T02:07:52.187Z,2.10
2017-06-27T02:10:19.637Z,2.40
2017-06-27T02:12:47.088Z,2.00
2017-06-27T02:15:14.544Z,2.43
2017-06-27T02:17:41.981Z,2.17
2017-06-27T02:20:09.427Z,2.67
2017-06-27T02:22:36.904Z,2.47
2017-06-27T02:25:04.336Z,2.40
2017-06-27T02:27:32.540Z,3.13
2017-06-27T02:29:59.968Z,3.30
2017-06-27T02:32:27.455Z,2.70
2017-06-27T02:34:54.892Z,2.47
2017-06-27T02:37:22.499Z,1.90
2017-06-27T02:39:49.935Z,2.37
2017-06-27T02:42:17.365Z,2.73
2017-06-27T02:44:45.627Z,2.20
2017-06-27T02:47:13.828Z,2.43
2017-06-27T02:49:41.315Z,2.47
2017-06-27T02:52:08.841Z,2.17
2017-06-27T02:54:36.288Z,2.13
2017-06-27T02:57:03.834Z,2.07
2017-06-27T02:59:31.267Z,2.37
2017-06-27T03:01:58.700Z,2.30
2017-06-27T03:04:26.119Z,2.13
2017-06-27T03:06:53.598Z,2.50
2017-06-27T03:09:21.036Z,2.47
2017-06-27T03:11:48.484Z,2.60
2017-06-27T03:14:15.929Z,2.30
2017-06-27T03:16:43.362Z,2.20
2017-06-27T03:19:10.844Z,2.23
2017-06-27T03:21:39.039Z,2.27
2017-06-27T03:24:06.511Z,2.70
2017-06-27T03:26:33.940Z,2.70
2017-06-27T03:29:01.495Z,2.80
2017-06-27T03:31:28.947Z,2.50
2017-06-27T03:33:56.378Z,2.30
2017-06-27T03:36:23.836Z,2.90
2017-06-27T03:38:51.268Z,2.50
2017-06-27T03:41:18.704Z,2.57
2017-06-27T03:43:46.148Z,2.50
2017-06-27T03:46:13.581Z,2.90
2017-06-27T03:48:41.038Z,2.90
2017-06-27T03:51:08.467Z,2.27
2017-06-27T03:53:35.932Z,2.23
2017-06-27T03:56:03.368Z,2.80
2017-06-27T03:58:30.811Z,2.57
2017-06-27T04:00:58.356Z,2.70
2017-06-27T04:03:25.816Z,2.20
2017-06-27T04:05:54.063Z,2.50
2017-06-27T04:08:21.512Z,3.17
2017-06-27T04:10:48.947Z,2.43
2017-06-27T04:13:16.394Z,2.43
2017-06-27T04:15:43.828Z,2.87
2017-06-27T04:18:11.273Z,2.60
2017-06-27T04:20:38.712Z,2.07
2017-06-27T04:23:06.205Z,2.37
2017-06-27T04:25:33.647Z,2.90
2017-06-27T04:28:01.079Z,2.60
2017-06-27T04:30:28.517Z,2.60
2017-06-27T04:35:30.755Z,3.37
2017-06-27T04:37:58.191Z,2.63
2017-06-27T04:40:25.633Z,2.60
2017-06-27T04:42:53.055Z,2.70
2017-06-27T04:45:20.487Z,2.77
2017-06-27T04:47:47.934Z,2.30
2017-06-27T04:50:15.412Z,2.63
2017-06-27T04:52:42.888Z,2.93
2017-06-27T04:55:10.312Z,3.50
2017-06-27T04:57:38.560Z,3.10
2017-06-27T05:00:05.996Z,2.60
2017-06-27T05:02:33.463Z,2.90
2017-06-27T05:05:01.648Z,3.70
2017-06-27T05:07:29.075Z,2.60
2017-06-27T05:09:56.527Z,3.23
2017-06-27T05:12:23.959Z,5.50
2017-06-27T05:14:51.857Z,6.10
2017-06-27T05:17:19.410Z,3.40
2017-06-27T05:19:46.844Z,2.70
2017-06-27T05:22:14.285Z,3.60
2017-06-27T05:24:41.732Z,2.60
2017-06-27T05:27:09.195Z,2.97
2017-06-27T05:29:36.624Z,2.70
2017-06-27T05:32:04.060Z,3.50
2017-06-27T05:34:31.501Z,3.20
2017-06-27T05:36:58.936Z,2.70
2017-06-27T05:39:26.372Z,2.83
2017-06-27T05:41:53.847Z,3.10
2017-06-27T05:44:21.271Z,3.50
2017-06-27T05:46:48.744Z,3.20
2017-06-27T05:49:17.111Z,3.67
2017-06-27T05:51:45.358Z,3.83
2017-06-27T05:54:12.799Z,2.77
2017-06-27T05:56:40.233Z,3.43
2017-06-27T05:59:07.659Z,2.77
2017-06-27T06:01:35.132Z,3.10
2017-06-27T06:04:02.595Z,3.00
2017-06-27T06:06:30.948Z,4.00
2017-06-27T06:08:59.148Z,3.73
2017-06-27T06:11:26.586Z,5.67
2017-06-27T06:13:54.012Z,3.47
2017-06-27T06:16:21.697Z,3.30
2017-06-27T06:18:49.124Z,2.90
2017-06-27T06:21:16.596Z,3.20
2017-06-27T06:23:44.034Z,3.60
2017-06-27T06:26:11.480Z,3.57
2017-06-27T06:28:38.956Z,3.27
2017-06-27T06:31:06.388Z,3.70
2017-06-27T06:33:33.843Z,3.70
2017-06-27T06:36:02.064Z,2.70
2017-06-27T06:38:29.500Z,2.80
2017-06-27T06:40:56.940Z,4.83
2017-06-27T06:43:24.412Z,3.20
2017-06-27T06:45:51.851Z,3.13
2017-06-27T06:48:19.298Z,3.03
2017-06-27T06:50:46.738Z,2.53
2017-06-27T06:53:14.201Z,3.30
2017-06-27T06:55:41.624Z,2.90
2017-06-27T06:58:09.054Z,3.00
2017-06-27T07:00:36.524Z,2.63
2017-06-27T07:03:04.719Z,2.47
2017-06-27T07:05:32.177Z,3.10
2017-06-27T07:07:59.600Z,2.57
2017-06-27T07:10:27.037Z,2.93
2017-06-27T07:12:54.499Z,3.20
2017-06-27T07:15:21.932Z,3.13
2017-06-27T07:17:49.395Z,3.20
2017-06-27T07:20:16.819Z,2.70
2017-06-27T07:22:44.256Z,3.00
2017-06-27T07:25:11.693Z,3.77
2017-06-27T07:27:39.124Z,3.10
2017-06-27T07:30:07.340Z,2.83
2017-06-27T07:32:34.774Z,3.67
2017-06-27T07:35:02.204Z,3.27
2017-06-27T07:37:29.654Z,3.47
2017-06-27T07:39:57.109Z,2.97
2017-06-27T07:42:24.548Z,3.10
2017-06-27T07:44:51.983Z,3.27
2017-06-27T07:47:19.414Z,3.10
2017-06-27T07:49:46.864Z,3.23
2017-06-27T07:52:14.316Z,2.40
2017-06-27T07:54:41.755Z,3.30
2017-06-27T07:57:09.186Z,3.10
2017-06-27T07:59:36.614Z,3.57
2017-06-27T08:02:04.076Z,2.57
2017-06-27T08:04:31.510Z,3.13
2017-06-27T08:06:58.994Z,2.60
2017-06-27T08:09:26.431Z,2.90
2017-06-27T08:11:53.892Z,2.70
2017-06-27T08:14:21.335Z,2.53
2017-06-27T08:16:49.540Z,3.20
2017-06-27T08:19:16.976Z,2.60
2017-06-27T08:21:44.408Z,2.93
2017-06-27T08:24:11.855Z,2.87
2017-06-27T08:26:39.275Z,2.60
2017-06-27T08:29:07.485Z,2.60
2017-06-27T08:31:35.064Z,2.50
2017-06-27T08:34:02.596Z,2.40
2017-06-27T08:36:30.148Z,2.97
2017-06-27T08:38:57.784Z,2.30
2017-06-27T08:41:25.345Z,2.30
2017-06-27T08:43:52.889Z,2.10
2017-06-27T08:46:20.363Z,2.30
2017-06-27T08:48:47.818Z,1.90
2017-06-27T08:51:15.245Z,2.30
2017-06-27T08:53:43.476Z,2.40
2017-06-27T08:56:10.909Z,2.43
2017-06-27T08:58:38.351Z,2.70
2017-06-27T09:01:06.557Z,2.10
2017-06-27T09:03:33.987Z,2.40
2017-06-27T09:06:02.188Z,2.27
2017-06-27T09:08:29.632Z,2.30
2017-06-27T09:10:57.056Z,2.60
2017-06-27T09:13:24.487Z,2.20
2017-06-27T09:15:51.924Z,2.40
2017-06-27T09:18:20.149Z,2.10
2017-06-27T09:20:47.626Z,1.93
2017-06-27T09:23:15.822Z,2.50
2017-06-27T09:25:43.298Z,1.83
2017-06-27T09:28:10.730Z,2.20
2017-06-27T09:30:38.160Z,2.30
2017-06-27T09:33:05.599Z,2.03
2017-06-27T09:35:33.040Z,2.33
2017-06-27T09:38:00.480Z,2.30
2017-06-27T09:40:27.932Z,2.43
2017-06-27T09:42:55.344Z,2.70
2017-06-27T09:45:22.782Z,1.97
2017-06-27T09:47:50.220Z,2.00
2017-06-27T09:50:17.657Z,2.13
2017-06-27T09:52:45.108Z,2.53
2017-06-27T09:55:13.298Z,2.40
2017-06-27T09:57:40.724Z,2.00
2017-06-27T10:00:08.164Z,2.27
2017-06-27T10:02:35.603Z,2.07
2017-06-27T10:05:03.108Z,2.10
2017-06-27T10:07:30.558Z,2.20
2017-06-27T10:09:57.992Z,2.00
2017-06-27T10:12:26.192Z,2.00
2017-06-27T10:14:53.640Z,2.60
2017-06-27T10:17:21.068Z,2.60
2017-06-27T10:19:48.492Z,2.70
2017-06-27T10:22:16.713Z,2.20
2017-06-27T10:24:44.152Z,1.80
2017-06-27T10:27:11.617Z,2.37
2017-06-27T10:29:39.045Z,2.20
2017-06-27T10:32:06.481Z,1.77
2017-06-27T10:34:33.916Z,1.97
2017-06-27T10:37:01.373Z,1.83
2017-06-27T10:39:28.832Z,2.50
2017-06-27T10:41:56.408Z,1.87
2017-06-27T10:44:23.841Z,1.73
2017-06-27T10:46:52.091Z,2.50
2017-06-27T10:49:19.523Z,1.90
2017-06-27T10:51:46.963Z,1.87
2017-06-27T10:54:14.404Z,2.03
2017-06-27T10:56:41.948Z,1.90
2017-06-27T10:59:09.381Z,1.97
2017-06-27T11:01:36.817Z,2.40
2017-06-27T11:04:04.271Z,2.33
2017-06-27T11:06:31.715Z,1.97
2017-06-27T11:08:59.200Z,2.30
2017-06-27T11:11:27.397Z,2.40
2017-06-27T11:13:54.839Z,2.20
2017-06-27T11:16:22.263Z,2.13
2017-06-27T11:18:49.748Z,2.00
2017-06-27T11:21:17.184Z,2.43
2017-06-27T11:23:44.621Z,2.00
2017-06-27T11:26:12.052Z,2.10
2017-06-27T11:28:39.494Z,1.90
2017-06-27T11:31:07.016Z,2.07
2017-06-27T11:33:34.510Z,1.93
2017-06-27T11:36:01.949Z,2.23
2017-06-27T11:38:29.376Z,2.90
2017-06-27T11:40:56.893Z,1.97
2017-06-27T11:43:24.320Z,2.20
2017-06-27T11:45:52.820Z,1.90
2017-06-27T11:48:20.256Z,1.90
2017-06-27T11:50:47.707Z,1.77
2017-06-27T11:53:15.160Z,2.27
2017-06-27T11:55:42.592Z,2.13
2017-06-27T11:58:10.045Z,1.93
2017-06-27T12:00:49.432Z,2.00
2017-06-27T12:03:28.671Z,1.77
2017-06-27T12:06:08.199Z,2.07
2017-06-27T12:08:35.880Z,1.80
2017-06-27T12:11:04.294Z,1.80
2017-06-27T12:13:31.962Z,2.13
2017-06-27T12:15:59.623Z,2.80
2017-06-27T12:18:27.353Z,2.30
2017-06-27T12:20:54.994Z,1.90
2017-06-27T12:23:22.659Z,2.60
2017-06-27T12:25:50.710Z,2.70
2017-06-27T12:28:18.345Z,2.30
2017-06-27T12:30:46.034Z,2.23
2017-06-27T12:33:14.246Z,1.90
2017-06-27T12:35:41.678Z,2.10
2017-06-27T12:38:09.135Z,2.03
2017-06-27T12:40:36.767Z,2.50
2017-06-27T12:43:04.347Z,1.80
2017-06-27T12:45:31.828Z,3.23
2017-06-27T12:47:59.239Z,2.77
2017-06-27T12:50:26.691Z,2.00
2017-06-27T12:52:54.138Z,2.07
2017-06-27T12:55:22.592Z,2.00
2017-06-27T12:57:50.060Z,2.60
2017-06-27T13:00:17.479Z,2.67
2017-06-27T13:02:44.912Z,2.30
2017-06-27T13:05:12.347Z,2.10
2017-06-27T13:07:39.770Z,1.80
2017-06-27T13:10:07.203Z,2.10
2017-06-27T13:12:34.724Z,2.70
2017-06-27T13:15:02.149Z,2.13
2017-06-27T13:17:29.576Z,2.50
2017-06-27T13:19:57.029Z,2.73
2017-06-27T13:22:24.452Z,2.50
2017-06-27T13:24:51.871Z,2.57
2017-06-27T13:27:19.415Z,2.17
2017-06-27T13:29:46.847Z,2.40
2017-06-27T13:32:14.339Z,2.57
2017-06-27T13:34:41.808Z,2.40
2017-06-27T13:37:09.240Z,2.50
2017-06-27T13:39:37.436Z,2.40
2017-06-27T13:42:04.866Z,2.53
2017-06-27T13:44:32.304Z,2.57
2017-06-27T13:46:59.825Z,2.67
2017-06-27T13:49:27.390Z,2.80
2017-06-27T13:51:55.624Z,3.00
2017-06-27T13:54:23.755Z,2.90
2017-06-27T13:56:51.195Z,2.87
2017-06-27T13:59:18.648Z,3.10
2017-06-27T14:01:46.075Z,3.27
2017-06-27T14:04:13.505Z,2.90
2017-06-27T14:06:40.943Z,2.80
2017-06-27T14:09:08.374Z,3.03
2017-06-27T14:11:35.856Z,2.60
2017-06-27T14:14:03.279Z,3.47
2017-06-27T14:16:30.720Z,2.17
2017-06-27T14:18:58.168Z,3.40
2017-06-27T14:21:26.263Z,2.77
2017-06-27T14:23:53.691Z,2.60
2017-06-27T14:26:22.132Z,2.60
2017-06-27T14:28:49.559Z,2.03
2017-06-27T14:31:16.987Z,2.53
2017-06-27T14:33:45.235Z,3.17
2017-06-27T14:36:13.460Z,2.87
2017-06-27T14:38:40.891Z,2.60
2017-06-27T14:41:08.330Z,2.73
2017-06-27T14:43:35.779Z,3.07
2017-06-27T14:46:03.326Z,2.10
2017-06-27T14:48:30.743Z,3.10
2017-06-27T14:50:58.171Z,2.87
2017-06-27T14:53:26.528Z,2.53
2017-06-27T14:55:54.740Z,2.40
2017-06-27T14:58:22.159Z,3.30
2017-06-27T15:00:49.620Z,2.63
2017-06-27T15:03:17.181Z,3.10
2017-06-27T15:05:44.629Z,2.60
2017-06-27T15:08:12.055Z,2.80
2017-06-27T15:10:39.539Z,2.90
2017-06-27T15:13:06.959Z,2.57
2017-06-27T15:15:34.387Z,2.63
2017-06-27T15:18:01.820Z,3.00
2017-06-27T15:20:29.248Z,3.10
2017-06-27T15:22:56.703Z,3.07
2017-06-27T15:25:24.111Z,3.23
2017-06-27T15:27:51.560Z,2.77
2017-06-27T15:30:18.991Z,3.40
2017-06-27T15:32:47.208Z,2.93
2017-06-27T15:35:14.663Z,2.97
2017-06-27T15:37:42.079Z,4.23
2017-06-27T15:40:09.520Z,2.60
2017-06-27T15:42:36.960Z,3.10
2017-06-27T15:45:04.399Z,2.77
2017-06-27T15:47:31.836Z,3.40
2017-06-27T15:49:59.278Z,3.50
2017-06-27T15:52:26.699Z,3.07
2017-06-27T15:54:54.124Z,3.03
2017-06-27T15:57:21.640Z,2.90
2017-06-27T15:59:49.082Z,3.00
2017-06-27T16:02:16.505Z,5.20
2017-06-27T16:04:44.048Z,3.00
2017-06-27T16:07:11.567Z,3.00
2017-06-27T16:09:38.995Z,2.73
2017-06-27T16:12:06.419Z,2.43
2017-06-27T16:14:34.738Z,2.63
2017-06-27T16:17:02.342Z,4.10
2017-06-27T16:19:30.550Z,3.40
2017-06-27T16:21:58.017Z,3.33
2017-06-27T16:24:26.076Z,3.03
2017-06-27T16:26:53.518Z,3.00
2017-06-27T16:29:20.937Z,2.67
2017-06-27T16:31:48.376Z,3.43
2017-06-27T16:34:15.803Z,3.47
2017-06-27T16:36:43.239Z,3.03
2017-06-27T16:39:10.803Z,3.30
2017-06-27T16:41:38.232Z,5.00
2017-06-27T16:44:05.664Z,3.63
2017-06-27T16:46:33.091Z,3.10
2017-06-27T16:49:00.539Z,2.83
2017-06-27T16:51:28.015Z,2.77
2017-06-27T16:53:55.452Z,3.60
2017-06-27T16:56:22.897Z,6.60
2017-06-27T16:58:50.367Z,3.10
2017-06-27T17:01:17.826Z,3.03
2017-06-27T17:03:46.023Z,3.37
2017-06-27T17:06:13.490Z,2.87
2017-06-27T17:08:40.952Z,3.07
2017-06-27T17:11:08.452Z,2.87
2017-06-27T17:13:35.919Z,3.27
2017-06-27T17:16:03.350Z,3.43
2017-06-27T17:18:30.935Z,3.70
2017-06-27T17:20:58.362Z,3.10
2017-06-27T17:23:25.915Z,3.10
2017-06-27T17:25:53.368Z,3.50
2017-06-27T17:28:20.804Z,3.87
2017-06-27T17:30:48.235Z,4.07
2017-06-27T17:33:15.727Z,3.40
2017-06-27T17:35:43.177Z,3.40
2017-06-27T17:38:10.612Z,3.77
2017-06-27T17:40:38.163Z,4.30
2017-06-27T17:43:06.344Z,4.03
2017-06-27T17:45:33.782Z,4.30
2017-06-27T17:48:01.259Z,3.60
2017-06-27T17:50:28.762Z,3.50
2017-06-27T17:52:56.180Z,4.63
2017-06-27T17:55:23.611Z,4.17
2017-06-27T17:57:51.824Z,4.80
2017-06-27T18:00:19.248Z,4.30
2017-06-27T18:02:46.684Z,4.50
2017-06-27T18:05:14.108Z,4.30
2017-06-27T18:07:41.583Z,4.63
2017-06-27T18:10:09.023Z,5.47
2017-06-27T18:12:36.592Z,7.07
2017-06-27T18:15:04.804Z,5.60
2017-06-27T18:17:32.275Z,5.00
2017-06-27T18:19:59.719Z,4.10
2017-06-27T18:22:27.167Z,4.67
2017-06-27T18:24:54.699Z,4.30
2017-06-27T18:27:22.143Z,4.60
2017-06-27T18:29:49.595Z,4.20
2017-06-27T18:32:17.060Z,5.00
2017-06-27T18:34:45.255Z,4.40
2017-06-27T18:37:12.876Z,4.47
2017-06-27T18:39:41.067Z,4.20
2017-06-27T18:42:08.629Z,4.20
2017-06-27T18:44:36.053Z,3.40
2017-06-27T18:47:03.496Z,4.40
2017-06-27T18:49:30.951Z,4.27
2017-06-27T18:51:58.392Z,3.23
2017-06-27T18:54:25.821Z,5.43
2017-06-27T18:56:53.245Z,4.47
2017-06-27T18:59:20.678Z,3.90
2017-06-27T19:01:48.105Z,4.17
2017-06-27T19:04:15.619Z,3.97
2017-06-27T19:06:43.816Z,3.83
2017-06-27T19:09:11.250Z,4.43
2017-06-27T19:11:38.684Z,3.80
2017-06-27T19:14:06.114Z,5.10
2017-06-27T19:16:33.557Z,3.93
2017-06-27T19:19:01.638Z,3.80
2017-06-27T19:21:29.052Z,4.00
2017-06-27T19:23:56.483Z,4.77
2017-06-27T19:26:23.932Z,3.97
2017-06-27T19:28:51.429Z,4.40
2017-06-27T19:31:18.904Z,4.60
2017-06-27T19:33:46.327Z,4.20
2017-06-27T19:36:13.869Z,4.40
2017-06-27T19:38:41.355Z,4.23
2017-06-27T19:41:08.792Z,4.47
2017-06-27T19:43:36.231Z,4.13
2017-06-27T19:46:03.700Z,3.40
2017-06-27T19:48:31.138Z,4.10
2017-06-27T19:50:58.555Z,4.00
2017-06-27T19:53:25.987Z,4.13
2017-06-27T19:55:54.231Z,3.60
2017-06-27T19:58:21.671Z,3.40
2017-06-27T20:00:49.159Z,3.90
2017-06-27T20:03:16.585Z,3.20
2017-06-27T20:05:44.031Z,2.67
2017-06-27T20:08:12.227Z,3.30
2017-06-27T20:10:39.760Z,2.70
2017-06-27T20:13:07.233Z,3.03
2017-06-27T20:15:34.652Z,2.87
2017-06-27T20:18:02.084Z,3.67
2017-06-27T20:20:29.637Z,2.93
2017-06-27T20:22:57.214Z,2.97
2017-06-27T20:25:24.689Z,2.93
2017-06-27T20:27:52.936Z,3.80
2017-06-27T20:30:20.360Z,3.50
2017-06-27T20:32:47.820Z,3.20
2017-06-27T20:35:15.308Z,3.47
2017-06-27T20:37:42.719Z,3.03
2017-06-27T20:40:10.996Z,3.50
2017-06-27T20:42:38.477Z,3.23
2017-06-27T20:45:05.962Z,3.27
2017-06-27T20:47:34.212Z,3.93
2017-06-27T20:50:01.630Z,3.43
2017-06-27T20:52:29.056Z,3.70
2017-06-27T20:54:56.561Z,3.40
2017-06-27T20:57:24.748Z,3.70
2017-06-27T20:59:52.177Z,3.10
2017-06-27T21:02:19.612Z,3.70
2017-06-27T21:04:47.932Z,5.10
2017-06-27T21:07:15.371Z,3.80
2017-06-27T21:09:42.819Z,3.57
2017-06-27T21:12:10.334Z,3.80
2017-06-27T21:14:37.819Z,3.87
2017-06-27T21:17:05.244Z,3.70
2017-06-27T21:19:32.748Z,3.77
2017-06-27T21:22:00.230Z,3.63
2017-06-27T21:24:27.660Z,3.50
2017-06-27T21:26:55.124Z,3.30
2017-06-27T21:29:22.637Z,3.70
2017-06-27T21:31:50.084Z,4.10
2017-06-27T21:34:17.551Z,3.77
2017-06-27T21:36:44.995Z,3.80
2017-06-27T21:39:12.440Z,3.50
2017-06-27T21:41:39.871Z,4.10
2017-06-27T21:44:07.298Z,3.63
2017-06-27T21:46:34.727Z,4.23
2017-06-27T21:49:02.160Z,4.43
2017-06-27T21:51:29.625Z,3.67
2017-06-27T21:53:57.091Z,3.77
2017-06-27T21:56:24.538Z,4.37
2017-06-27T21:58:51.956Z,4.50
2017-06-27T22:01:19.395Z,4.47
2017-06-27T22:03:46.822Z,4.13
2017-06-27T22:06:14.251Z,4.57
2017-06-27T22:08:41.711Z,3.83
2017-06-27T22:11:09.168Z,4.20
2017-06-27T22:13:36.587Z,4.10
2017-06-27T22:16:04.051Z,4.40
2017-06-27T22:18:31.484Z,4.00
2017-06-27T22:20:58.907Z,4.00
2017-06-27T22:23:26.354Z,3.70
2017-06-27T22:25:53.781Z,4.57
2017-06-27T22:28:21.199Z,4.20
2017-06-27T22:30:48.626Z,3.70
2017-06-27T22:33:16.068Z,3.97
2017-06-27T22:35:43.530Z,3.63
2017-06-27T22:38:10.959Z,4.07
2017-06-27T22:40:38.391Z,4.00
2017-06-27T22:43:05.823Z,4.37
2017-06-27T22:45:33.278Z,5.13
2017-06-27T22:48:00.702Z,3.80
2017-06-27T22:50:28.132Z,3.40
2017-06-27T22:52:55.586Z,4.73
2017-06-27T22:55:23.008Z,4.23
2017-06-27T22:57:50.444Z,4.10
2017-06-27T23:00:17.875Z,3.90
2017-06-27T23:02:45.321Z,3.50
2017-06-27T23:05:12.744Z,3.70
2017-06-27T23:07:40.934Z,3.57
2017-06-27T23:10:08.370Z,4.70
2017-06-27T23:12:35.805Z,4.00
2017-06-27T23:15:03.232Z,4.70
2017-06-27T23:17:31.433Z,5.23
2017-06-27T23:19:58.867Z,4.70
2017-06-27T23:22:26.299Z,3.90
2017-06-27T23:24:53.733Z,4.60
2017-06-27T23:27:21.933Z,3.83
2017-06-27T23:29:49.363Z,4.33
2017-06-27T23:32:16.811Z,4.27
2017-06-27T23:34:44.235Z,4.30
2017-06-27T23:37:11.671Z,4.40
2017-06-27T23:39:39.099Z,4.70
2017-06-27T23:42:07.298Z,4.67
2017-06-27T23:44:34.724Z,5.10
2017-06-27T23:47:02.154Z,4.47
2017-06-27T23:49:29.591Z,5.13
2017-06-27T23:51:57.784Z,4.60
2017-06-27T23:54:25.231Z,5.00
2017-06-27T23:56:52.652Z,4.83
2017-06-27T23:59:20.100Z,3.90
